TitleAuthorLatest activityViews
ThreadSolar GaryNovember 23, 2017 3:02:35 AM 3310 0 10
Threadlindaf56925518November 23, 2017 2:45:37 AM 1170 0 2
Threadnigelh70638339November 23, 2017 2:11:47 AM 1700 0 14
ThreadAnotherMeNovember 23, 2017 1:43:47 AM 1500 0 12
ThreadNancy OSheaNovember 23, 2017 12:28:57 AM 2621 0 13
ThreadotterstreamNovember 22, 2017 11:27:57 PM 702 0 5
Threadiris_on_adobeNovember 22, 2017 10:56:23 PM 2830 0 11
Thread.Buko.November 22, 2017 10:06:02 PM 770 0 3
Threadstephenn12371843November 22, 2017 9:55:39 PM 650 0 4
ThreadTjStormNovember 22, 2017 9:34:21 PM 600 0 1
ThreadKevinB9November 22, 2017 5:07:33 PM 1130 0 6
Threadbiankas72552495November 22, 2017 3:52:38 PM 410 0 1
Threadraaj1November 22, 2017 3:19:23 PM 410 0 2
Threadkellyd23394505November 22, 2017 3:06:50 PM 350 0 1
ThreadmichaelvergesNovember 22, 2017 10:17:59 AM 1210 0 7
Threadkineticcreative123November 22, 2017 9:41:45 AM 2140 0 11
Threadoskark29302609November 22, 2017 9:07:51 AM 1000 0 8
ThreadLeeBowNovember 22, 2017 8:58:37 AM 621 0 3
Threadsdinweoinasd9384152November 22, 2017 8:56:04 AM 940 0 6
ThreadOrchids-WorldNovember 22, 2017 7:55:04 AM 54283 0 18